sensor_id;sensor_type;location;lat;lon;timestamp;P1;durP1;ratioP1;P2;durP2;ratioP2
51248;SDS011;39642;47.556;18.728;2024-01-16T00:01:52;6.15;;;1.80;;
51248;SDS011;39642;47.556;18.728;2024-01-16T00:04:18;4.75;;;1.80;;
51248;SDS011;39642;47.556;18.728;2024-01-16T00:06:44;6.40;;;1.98;;
51248;SDS011;39642;47.556;18.728;2024-01-16T00:09:10;6.18;;;1.90;;
51248;SDS011;39642;47.556;18.728;2024-01-16T00:11:42;5.35;;;1.80;;
51248;SDS011;39642;47.556;18.728;2024-01-16T00:14:08;6.90;;;1.67;;
51248;SDS011;39642;47.556;18.728;2024-01-16T00:16:56;6.93;;;1.87;;
51248;SDS011;39642;47.556;18.728;2024-01-16T00:19:21;5.75;;;1.80;;
51248;SDS011;39642;47.556;18.728;2024-01-16T00:21:47;6.25;;;1.90;;
51248;SDS011;39642;47.556;18.728;2024-01-16T00:24:13;6.28;;;1.80;;
51248;SDS011;39642;47.556;18.728;2024-01-16T00:26:40;3.60;;;1.45;;
51248;SDS011;39642;47.556;18.728;2024-01-16T00:29:05;5.37;;;1.70;;
51248;SDS011;39642;47.556;18.728;2024-01-16T00:31:31;5.53;;;1.80;;
51248;SDS011;39642;47.556;18.728;2024-01-16T00:33:57;5.62;;;1.70;;
51248;SDS011;39642;47.556;18.728;2024-01-16T00:36:23;6.20;;;1.85;;
51248;SDS011;39642;47.556;18.728;2024-01-16T00:38:49;4.78;;;1.60;;
51248;SDS011;39642;47.556;18.728;2024-01-16T00:41:15;4.37;;;1.48;;
51248;SDS011;39642;47.556;18.728;2024-01-16T00:43:41;6.00;;;1.73;;
51248;SDS011;39642;47.556;18.728;2024-01-16T00:46:08;4.85;;;1.62;;
51248;SDS011;39642;47.556;18.728;2024-01-16T00:48:34;4.28;;;1.58;;
51248;SDS011;39642;47.556;18.728;2024-01-16T00:51:00;5.00;;;1.60;;
51248;SDS011;39642;47.556;18.728;2024-01-16T00:53:26;5.65;;;1.70;;
51248;SDS011;39642;47.556;18.728;2024-01-16T00:55:53;3.83;;;1.50;;
51248;SDS011;39642;47.556;18.728;2024-01-16T00:58:21;4.85;;;1.70;;
51248;SDS011;39642;47.556;18.728;2024-01-16T01:00:47;5.05;;;1.70;;
51248;SDS011;39642;47.556;18.728;2024-01-16T01:03:14;4.87;;;1.58;;
51248;SDS011;39642;47.556;18.728;2024-01-16T01:05:40;4.12;;;1.58;;
51248;SDS011;39642;47.556;18.728;2024-01-16T01:08:06;7.03;;;1.73;;
51248;SDS011;39642;47.556;18.728;2024-01-16T01:10:31;5.45;;;1.70;;
51248;SDS011;39642;47.556;18.728;2024-01-16T01:12:57;7.22;;;1.90;;
51248;SDS011;39642;47.556;18.728;2024-01-16T01:15:23;5.05;;;1.67;;
51248;SDS011;39642;47.556;18.728;2024-01-16T01:17:49;6.20;;;1.87;;
51248;SDS011;39642;47.556;18.728;2024-01-16T01:20:17;5.28;;;1.70;;
51248;SDS011;39642;47.556;18.728;2024-01-16T01:22:44;4.82;;;1.50;;
51248;SDS011;39642;47.556;18.728;2024-01-16T01:25:13;4.85;;;1.70;;
51248;SDS011;39642;47.556;18.728;2024-01-16T01:27:39;6.00;;;1.80;;
51248;SDS011;39642;47.556;18.728;2024-01-16T01:30:08;4.72;;;1.60;;
51248;SDS011;39642;47.556;18.728;2024-01-16T01:32:38;4.25;;;1.50;;
51248;SDS011;39642;47.556;18.728;2024-01-16T01:35:05;5.97;;;1.75;;
51248;SDS011;39642;47.556;18.728;2024-01-16T01:37:31;5.15;;;1.87;;
51248;SDS011;39642;47.556;18.728;2024-01-16T01:39:57;7.68;;;1.90;;
51248;SDS011;39642;47.556;18.728;2024-01-16T01:42:22;5.90;;;1.70;;
51248;SDS011;39642;47.556;18.728;2024-01-16T01:44:48;5.97;;;1.70;;
51248;SDS011;39642;47.556;18.728;2024-01-16T01:47:14;5.75;;;1.70;;
51248;SDS011;39642;47.556;18.728;2024-01-16T01:49:40;6.55;;;1.60;;
51248;SDS011;39642;47.556;18.728;2024-01-16T01:52:06;6.37;;;1.70;;
51248;SDS011;39642;47.556;18.728;2024-01-16T01:54:33;5.45;;;1.75;;
51248;SDS011;39642;47.556;18.728;2024-01-16T01:57:01;5.55;;;1.67;;
51248;SDS011;39642;47.556;18.728;2024-01-16T01:59:29;5.65;;;1.73;;
51248;SDS011;39642;47.556;18.728;2024-01-16T02:01:56;5.32;;;1.70;;
51248;SDS011;39642;47.556;18.728;2024-01-16T02:04:22;4.03;;;1.50;;
51248;SDS011;39642;47.556;18.728;2024-01-16T02:06:50;4.82;;;1.67;;
51248;SDS011;39642;47.556;18.728;2024-01-16T02:09:16;5.47;;;1.77;;
51248;SDS011;39642;47.556;18.728;2024-01-16T02:11:42;5.47;;;1.70;;
51248;SDS011;39642;47.556;18.728;2024-01-16T02:14:09;5.28;;;1.70;;
51248;SDS011;39642;47.556;18.728;2024-01-16T02:16:38;5.40;;;1.70;;
51248;SDS011;39642;47.556;18.728;2024-01-16T02:19:06;5.80;;;1.60;;
51248;SDS011;39642;47.556;18.728;2024-01-16T02:21:36;6.40;;;1.75;;
51248;SDS011;39642;47.556;18.728;2024-01-16T02:24:07;6.50;;;1.80;;
51248;SDS011;39642;47.556;18.728;2024-01-16T02:26:35;5.53;;;1.70;;
51248;SDS011;39642;47.556;18.728;2024-01-16T02:29:01;4.35;;;1.50;;
51248;SDS011;39642;47.556;18.728;2024-01-16T02:31:28;4.25;;;1.50;;
51248;SDS011;39642;47.556;18.728;2024-01-16T02:33:54;5.47;;;1.65;;
51248;SDS011;39642;47.556;18.728;2024-01-16T02:36:19;3.55;;;1.50;;
51248;SDS011;39642;47.556;18.728;2024-01-16T02:38:45;5.07;;;1.70;;
51248;SDS011;39642;47.556;18.728;2024-01-16T02:41:13;4.53;;;1.65;;
51248;SDS011;39642;47.556;18.728;2024-01-16T02:43:41;5.25;;;1.70;;
51248;SDS011;39642;47.556;18.728;2024-01-16T02:46:07;5.85;;;1.80;;
51248;SDS011;39642;47.556;18.728;2024-01-16T02:48:36;5.70;;;1.87;;
51248;SDS011;39642;47.556;18.728;2024-01-16T02:51:03;6.43;;;1.90;;
51248;SDS011;39642;47.556;18.728;2024-01-16T02:53:29;5.43;;;1.80;;
51248;SDS011;39642;47.556;18.728;2024-01-16T02:55:56;5.85;;;1.70;;
51248;SDS011;39642;47.556;18.728;2024-01-16T02:58:28;7.15;;;2.03;;
51248;SDS011;39642;47.556;18.728;2024-01-16T03:00:55;5.72;;;2.00;;
51248;SDS011;39642;47.556;18.728;2024-01-16T03:03:21;6.55;;;1.90;;
51248;SDS011;39642;47.556;18.728;2024-01-16T03:05:47;7.28;;;2.35;;
51248;SDS011;39642;47.556;18.728;2024-01-16T03:08:13;6.12;;;2.10;;
51248;SDS011;39642;47.556;18.728;2024-01-16T03:10:39;5.93;;;2.10;;
51248;SDS011;39642;47.556;18.728;2024-01-16T03:13:05;6.55;;;2.00;;
51248;SDS011;39642;47.556;18.728;2024-01-16T03:15:31;6.05;;;1.90;;
51248;SDS011;39642;47.556;18.728;2024-01-16T03:17:57;7.70;;;2.10;;
51248;SDS011;39642;47.556;18.728;2024-01-16T03:20:24;6.87;;;2.10;;
51248;SDS011;39642;47.556;18.728;2024-01-16T03:22:49;5.95;;;1.98;;
51248;SDS011;39642;47.556;18.728;2024-01-16T03:25:16;7.22;;;2.00;;
51248;SDS011;39642;47.556;18.728;2024-01-16T03:27:42;7.20;;;2.10;;
51248;SDS011;39642;47.556;18.728;2024-01-16T03:30:08;5.72;;;2.00;;
51248;SDS011;39642;47.556;18.728;2024-01-16T03:32:35;6.65;;;2.10;;
51248;SDS011;39642;47.556;18.728;2024-01-16T03:35:01;5.97;;;2.00;;
51248;SDS011;39642;47.556;18.728;2024-01-16T03:37:27;6.10;;;1.90;;
51248;SDS011;39642;47.556;18.728;2024-01-16T03:39:53;6.50;;;2.10;;
51248;SDS011;39642;47.556;18.728;2024-01-16T03:42:20;7.45;;;2.28;;
51248;SDS011;39642;47.556;18.728;2024-01-16T03:44:46;6.35;;;1.90;;
51248;SDS011;39642;47.556;18.728;2024-01-16T03:47:12;6.87;;;2.10;;
51248;SDS011;39642;47.556;18.728;2024-01-16T03:49:38;5.80;;;1.95;;
51248;SDS011;39642;47.556;18.728;2024-01-16T03:52:04;5.35;;;1.75;;
51248;SDS011;39642;47.556;18.728;2024-01-16T03:54:30;5.55;;;1.73;;
51248;SDS011;39642;47.556;18.728;2024-01-16T03:56:56;5.00;;;1.60;;
51248;SDS011;39642;47.556;18.728;2024-01-16T03:59:22;6.25;;;1.90;;
51248;SDS011;39642;47.556;18.728;2024-01-16T04:01:48;5.78;;;2.00;;
51248;SDS011;39642;47.556;18.728;2024-01-16T04:04:15;5.62;;;1.80;;
51248;SDS011;39642;47.556;18.728;2024-01-16T04:06:41;5.00;;;1.77;;
51248;SDS011;39642;47.556;18.728;2024-01-16T04:09:08;6.72;;;2.10;;
51248;SDS011;39642;47.556;18.728;2024-01-16T04:11:35;5.50;;;1.87;;
51248;SDS011;39642;47.556;18.728;2024-01-16T04:14:02;6.45;;;1.87;;
51248;SDS011;39642;47.556;18.728;2024-01-16T04:16:28;6.78;;;2.12;;
51248;SDS011;39642;47.556;18.728;2024-01-16T04:18:54;6.75;;;2.10;;
51248;SDS011;39642;47.556;18.728;2024-01-16T04:21:19;6.18;;;1.95;;
51248;SDS011;39642;47.556;18.728;2024-01-16T04:23:45;6.75;;;2.20;;
51248;SDS011;39642;47.556;18.728;2024-01-16T04:26:11;7.05;;;2.10;;
51248;SDS011;39642;47.556;18.728;2024-01-16T04:28:37;6.95;;;2.20;;
51248;SDS011;39642;47.556;18.728;2024-01-16T04:31:06;5.55;;;1.90;;
51248;SDS011;39642;47.556;18.728;2024-01-16T04:33:32;6.03;;;1.92;;
51248;SDS011;39642;47.556;18.728;2024-01-16T04:35:58;5.75;;;1.80;;
51248;SDS011;39642;47.556;18.728;2024-01-16T04:38:24;6.55;;;2.08;;
51248;SDS011;39642;47.556;18.728;2024-01-16T04:40:50;6.57;;;1.80;;
51248;SDS011;39642;47.556;18.728;2024-01-16T04:43:15;5.60;;;1.83;;
51248;SDS011;39642;47.556;18.728;2024-01-16T04:45:41;5.25;;;1.90;;
51248;SDS011;39642;47.556;18.728;2024-01-16T04:48:07;6.65;;;2.10;;
51248;SDS011;39642;47.556;18.728;2024-01-16T04:50:36;6.93;;;1.95;;
51248;SDS011;39642;47.556;18.728;2024-01-16T04:53:02;6.45;;;1.90;;
51248;SDS011;39642;47.556;18.728;2024-01-16T04:55:28;5.65;;;1.80;;
51248;SDS011;39642;47.556;18.728;2024-01-16T04:57:55;7.05;;;2.17;;
51248;SDS011;39642;47.556;18.728;2024-01-16T05:00:22;6.53;;;2.00;;
51248;SDS011;39642;47.556;18.728;2024-01-16T05:02:48;5.25;;;1.90;;
51248;SDS011;39642;47.556;18.728;2024-01-16T05:05:14;6.85;;;1.90;;
51248;SDS011;39642;47.556;18.728;2024-01-16T05:07:40;8.23;;;2.10;;
51248;SDS011;39642;47.556;18.728;2024-01-16T05:10:09;6.72;;;2.10;;
51248;SDS011;39642;47.556;18.728;2024-01-16T05:12:36;6.62;;;2.00;;
51248;SDS011;39642;47.556;18.728;2024-01-16T05:15:02;7.30;;;2.03;;
51248;SDS011;39642;47.556;18.728;2024-01-16T05:17:28;6.32;;;2.00;;
51248;SDS011;39642;47.556;18.728;2024-01-16T05:19:54;8.02;;;2.12;;
51248;SDS011;39642;47.556;18.728;2024-01-16T05:22:19;6.90;;;2.00;;
51248;SDS011;39642;47.556;18.728;2024-01-16T05:24:45;6.10;;;1.90;;
51248;SDS011;39642;47.556;18.728;2024-01-16T05:27:11;7.50;;;1.90;;
51248;SDS011;39642;47.556;18.728;2024-01-16T05:29:37;6.95;;;2.00;;
51248;SDS011;39642;47.556;18.728;2024-01-16T05:32:03;9.18;;;2.25;;
51248;SDS011;39642;47.556;18.728;2024-01-16T05:34:30;9.55;;;2.00;;
51248;SDS011;39642;47.556;18.728;2024-01-16T05:36:55;9.20;;;2.12;;
51248;SDS011;39642;47.556;18.728;2024-01-16T05:39:21;11.15;;;1.90;;
51248;SDS011;39642;47.556;18.728;2024-01-16T05:41:47;5.00;;;1.52;;
51248;SDS011;39642;47.556;18.728;2024-01-16T05:44:13;8.25;;;1.83;;
51248;SDS011;39642;47.556;18.728;2024-01-16T05:46:39;8.80;;;2.22;;
51248;SDS011;39642;47.556;18.728;2024-01-16T05:49:05;13.15;;;2.30;;
51248;SDS011;39642;47.556;18.728;2024-01-16T05:51:31;9.77;;;2.25;;
51248;SDS011;39642;47.556;18.728;2024-01-16T05:53:56;6.10;;;1.70;;
51248;SDS011;39642;47.556;18.728;2024-01-16T05:56:22;5.32;;;1.62;;
51248;SDS011;39642;47.556;18.728;2024-01-16T05:58:48;7.55;;;1.60;;
51248;SDS011;39642;47.556;18.728;2024-01-16T06:01:14;6.10;;;1.70;;
51248;SDS011;39642;47.556;18.728;2024-01-16T06:03:40;8.68;;;1.90;;
51248;SDS011;39642;47.556;18.728;2024-01-16T06:06:07;5.10;;;1.60;;
51248;SDS011;39642;47.556;18.728;2024-01-16T06:08:33;7.50;;;2.10;;
51248;SDS011;39642;47.556;18.728;2024-01-16T06:10:59;8.88;;;2.00;;
51248;SDS011;39642;47.556;18.728;2024-01-16T06:13:25;10.82;;;2.50;;
51248;SDS011;39642;47.556;18.728;2024-01-16T06:15:51;8.02;;;2.17;;
51248;SDS011;39642;47.556;18.728;2024-01-16T06:18:17;9.25;;;2.67;;
51248;SDS011;39642;47.556;18.728;2024-01-16T06:20:43;18.35;;;4.15;;
51248;SDS011;39642;47.556;18.728;2024-01-16T06:23:09;11.45;;;2.45;;
51248;SDS011;39642;47.556;18.728;2024-01-16T06:25:35;16.42;;;4.80;;
51248;SDS011;39642;47.556;18.728;2024-01-16T06:28:00;22.08;;;6.68;;
51248;SDS011;39642;47.556;18.728;2024-01-16T06:30:26;19.15;;;4.93;;
51248;SDS011;39642;47.556;18.728;2024-01-16T06:32:52;16.52;;;3.90;;
51248;SDS011;39642;47.556;18.728;2024-01-16T06:35:18;10.35;;;2.62;;
51248;SDS011;39642;47.556;18.728;2024-01-16T06:37:44;17.80;;;4.30;;
51248;SDS011;39642;47.556;18.728;2024-01-16T06:40:10;15.45;;;4.80;;
51248;SDS011;39642;47.556;18.728;2024-01-16T06:42:36;14.50;;;3.87;;
51248;SDS011;39642;47.556;18.728;2024-01-16T06:45:02;11.90;;;3.25;;
51248;SDS011;39642;47.556;18.728;2024-01-16T06:47:29;9.50;;;3.20;;
51248;SDS011;39642;47.556;18.728;2024-01-16T06:49:54;14.93;;;3.40;;
51248;SDS011;39642;47.556;18.728;2024-01-16T06:52:20;10.73;;;3.10;;
51248;SDS011;39642;47.556;18.728;2024-01-16T06:54:47;15.13;;;4.53;;
51248;SDS011;39642;47.556;18.728;2024-01-16T06:57:12;12.07;;;3.62;;
51248;SDS011;39642;47.556;18.728;2024-01-16T06:59:38;18.73;;;4.85;;
51248;SDS011;39642;47.556;18.728;2024-01-16T07:02:04;22.00;;;4.30;;
51248;SDS011;39642;47.556;18.728;2024-01-16T07:04:30;15.57;;;3.92;;
51248;SDS011;39642;47.556;18.728;2024-01-16T07:06:56;12.02;;;3.30;;
51248;SDS011;39642;47.556;18.728;2024-01-16T07:09:25;12.00;;;3.25;;
51248;SDS011;39642;47.556;18.728;2024-01-16T07:11:53;14.07;;;3.42;;
51248;SDS011;39642;47.556;18.728;2024-01-16T07:14:19;14.87;;;3.87;;
51248;SDS011;39642;47.556;18.728;2024-01-16T07:16:45;12.10;;;2.62;;
51248;SDS011;39642;47.556;18.728;2024-01-16T07:19:12;11.55;;;2.62;;
51248;SDS011;39642;47.556;18.728;2024-01-16T07:21:38;14.23;;;3.40;;
51248;SDS011;39642;47.556;18.728;2024-01-16T07:24:04;13.38;;;3.50;;
51248;SDS011;39642;47.556;18.728;2024-01-16T07:26:30;11.90;;;2.90;;
51248;SDS011;39642;47.556;18.728;2024-01-16T07:28:56;8.93;;;2.30;;
51248;SDS011;39642;47.556;18.728;2024-01-16T07:31:22;14.10;;;2.72;;
51248;SDS011;39642;47.556;18.728;2024-01-16T07:33:48;10.60;;;2.40;;
51248;SDS011;39642;47.556;18.728;2024-01-16T07:36:14;18.87;;;3.25;;
51248;SDS011;39642;47.556;18.728;2024-01-16T07:38:40;12.07;;;2.97;;
51248;SDS011;39642;47.556;18.728;2024-01-16T07:41:06;10.95;;;2.72;;
51248;SDS011;39642;47.556;18.728;2024-01-16T07:43:32;10.02;;;2.72;;
51248;SDS011;39642;47.556;18.728;2024-01-16T07:45:58;18.00;;;3.55;;
51248;SDS011;39642;47.556;18.728;2024-01-16T07:48:24;12.85;;;2.75;;
51248;SDS011;39642;47.556;18.728;2024-01-16T07:50:50;14.73;;;3.42;;
51248;SDS011;39642;47.556;18.728;2024-01-16T07:53:16;13.45;;;3.20;;
51248;SDS011;39642;47.556;18.728;2024-01-16T07:55:43;17.87;;;3.25;;
51248;SDS011;39642;47.556;18.728;2024-01-16T07:58:12;12.93;;;3.40;;
51248;SDS011;39642;47.556;18.728;2024-01-16T08:00:39;18.58;;;2.60;;
51248;SDS011;39642;47.556;18.728;2024-01-16T08:03:07;20.25;;;3.80;;
51248;SDS011;39642;47.556;18.728;2024-01-16T08:05:33;16.45;;;3.80;;
51248;SDS011;39642;47.556;18.728;2024-01-16T08:07:59;13.65;;;3.17;;
51248;SDS011;39642;47.556;18.728;2024-01-16T08:10:25;12.05;;;3.58;;
51248;SDS011;39642;47.556;18.728;2024-01-16T08:12:51;16.85;;;4.32;;
51248;SDS011;39642;47.556;18.728;2024-01-16T08:15:17;19.00;;;3.75;;
51248;SDS011;39642;47.556;18.728;2024-01-16T08:17:43;16.67;;;3.45;;
51248;SDS011;39642;47.556;18.728;2024-01-16T08:20:09;16.73;;;3.85;;
51248;SDS011;39642;47.556;18.728;2024-01-16T08:22:36;14.73;;;3.90;;
51248;SDS011;39642;47.556;18.728;2024-01-16T08:25:02;14.43;;;3.92;;
51248;SDS011;39642;47.556;18.728;2024-01-16T08:27:30;15.23;;;3.95;;
51248;SDS011;39642;47.556;18.728;2024-01-16T08:29:57;13.82;;;3.35;;
51248;SDS011;39642;47.556;18.728;2024-01-16T08:32:23;14.75;;;3.28;;
51248;SDS011;39642;47.556;18.728;2024-01-16T08:34:48;14.95;;;3.12;;
51248;SDS011;39642;47.556;18.728;2024-01-16T08:37:14;12.80;;;3.17;;
51248;SDS011;39642;47.556;18.728;2024-01-16T08:39:40;17.35;;;4.12;;
51248;SDS011;39642;47.556;18.728;2024-01-16T08:42:06;13.80;;;2.97;;
51248;SDS011;39642;47.556;18.728;2024-01-16T08:44:35;10.98;;;2.90;;
51248;SDS011;39642;47.556;18.728;2024-01-16T08:47:01;12.00;;;2.65;;
51248;SDS011;39642;47.556;18.728;2024-01-16T08:49:30;20.90;;;4.07;;
51248;SDS011;39642;47.556;18.728;2024-01-16T08:51:56;14.43;;;2.95;;
51248;SDS011;39642;47.556;18.728;2024-01-16T08:54:21;21.42;;;3.58;;
51248;SDS011;39642;47.556;18.728;2024-01-16T08:56:48;26.67;;;4.28;;
51248;SDS011;39642;47.556;18.728;2024-01-16T08:59:14;17.27;;;3.90;;
51248;SDS011;39642;47.556;18.728;2024-01-16T09:01:40;19.48;;;3.70;;
51248;SDS011;39642;47.556;18.728;2024-01-16T09:04:07;13.40;;;3.10;;
51248;SDS011;39642;47.556;18.728;2024-01-16T09:06:33;13.48;;;2.80;;
51248;SDS011;39642;47.556;18.728;2024-01-16T09:08:59;17.27;;;3.92;;
51248;SDS011;39642;47.556;18.728;2024-01-16T09:11:25;14.38;;;2.78;;
51248;SDS011;39642;47.556;18.728;2024-01-16T09:13:51;19.35;;;3.60;;
51248;SDS011;39642;47.556;18.728;2024-01-16T09:16:17;14.05;;;3.20;;
51248;SDS011;39642;47.556;18.728;2024-01-16T09:18:43;16.08;;;3.08;;
51248;SDS011;39642;47.556;18.728;2024-01-16T09:21:09;19.87;;;3.37;;
51248;SDS011;39642;47.556;18.728;2024-01-16T09:23:35;14.63;;;3.15;;
51248;SDS011;39642;47.556;18.728;2024-01-16T09:26:01;14.15;;;3.20;;
51248;SDS011;39642;47.556;18.728;2024-01-16T09:28:27;10.65;;;2.70;;
51248;SDS011;39642;47.556;18.728;2024-01-16T09:30:54;14.50;;;2.95;;
51248;SDS011;39642;47.556;18.728;2024-01-16T09:33:23;11.70;;;3.00;;
51248;SDS011;39642;47.556;18.728;2024-01-16T09:35:51;13.62;;;3.10;;
51248;SDS011;39642;47.556;18.728;2024-01-16T09:38:17;14.57;;;3.58;;
51248;SDS011;39642;47.556;18.728;2024-01-16T09:40:43;12.73;;;3.20;;
51248;SDS011;39642;47.556;18.728;2024-01-16T09:43:09;18.87;;;3.10;;
51248;SDS011;39642;47.556;18.728;2024-01-16T09:45:37;17.12;;;3.17;;
51248;SDS011;39642;47.556;18.728;2024-01-16T09:48:03;26.60;;;4.20;;
51248;SDS011;39642;47.556;18.728;2024-01-16T09:50:30;33.08;;;5.30;;
51248;SDS011;39642;47.556;18.728;2024-01-16T09:52:56;27.10;;;4.30;;
51248;SDS011;39642;47.556;18.728;2024-01-16T09:55:23;19.48;;;3.70;;
51248;SDS011;39642;47.556;18.728;2024-01-16T09:57:51;19.75;;;3.97;;
51248;SDS011;39642;47.556;18.728;2024-01-16T10:00:18;26.90;;;4.43;;
51248;SDS011;39642;47.556;18.728;2024-01-16T10:02:45;24.83;;;4.25;;
51248;SDS011;39642;47.556;18.728;2024-01-16T10:05:11;21.45;;;4.25;;
51248;SDS011;39642;47.556;18.728;2024-01-16T10:07:38;25.20;;;3.72;;
51248;SDS011;39642;47.556;18.728;2024-01-16T10:10:05;22.02;;;4.32;;
51248;SDS011;39642;47.556;18.728;2024-01-16T10:12:32;28.55;;;4.18;;
51248;SDS011;39642;47.556;18.728;2024-01-16T10:14:58;17.02;;;3.50;;
51248;SDS011;39642;47.556;18.728;2024-01-16T10:20:08;19.45;;;3.75;;
51248;SDS011;39642;47.556;18.728;2024-01-16T10:22:54;18.83;;;4.30;;
51248;SDS011;39642;47.556;18.728;2024-01-16T10:25:19;15.25;;;3.92;;
51248;SDS011;39642;47.556;18.728;2024-01-16T10:27:47;21.95;;;4.20;;
51248;SDS011;39642;47.556;18.728;2024-01-16T10:30:15;21.10;;;4.20;;
51248;SDS011;39642;47.556;18.728;2024-01-16T10:32:46;15.18;;;3.62;;
51248;SDS011;39642;47.556;18.728;2024-01-16T10:35:14;17.00;;;3.70;;
51248;SDS011;39642;47.556;18.728;2024-01-16T10:37:40;13.40;;;3.15;;
51248;SDS011;39642;47.556;18.728;2024-01-16T10:40:07;18.27;;;3.53;;
51248;SDS011;39642;47.556;18.728;2024-01-16T10:42:33;22.80;;;3.90;;
51248;SDS011;39642;47.556;18.728;2024-01-16T10:44:59;15.80;;;3.42;;
51248;SDS011;39642;47.556;18.728;2024-01-16T10:47:25;20.20;;;4.05;;
51248;SDS011;39642;47.556;18.728;2024-01-16T10:49:51;23.67;;;4.30;;
51248;SDS011;39642;47.556;18.728;2024-01-16T10:52:17;22.20;;;4.10;;
51248;SDS011;39642;47.556;18.728;2024-01-16T10:54:43;24.35;;;4.03;;
51248;SDS011;39642;47.556;18.728;2024-01-16T10:57:13;16.60;;;3.78;;
51248;SDS011;39642;47.556;18.728;2024-01-16T10:59:50;15.20;;;3.78;;
51248;SDS011;39642;47.556;18.728;2024-01-16T11:02:28;20.52;;;3.58;;
51248;SDS011;39642;47.556;18.728;2024-01-16T11:05:01;15.90;;;3.65;;
51248;SDS011;39642;47.556;18.728;2024-01-16T11:07:32;20.45;;;4.22;;
51248;SDS011;39642;47.556;18.728;2024-01-16T11:10:01;18.30;;;3.67;;
51248;SDS011;39642;47.556;18.728;2024-01-16T11:12:30;18.50;;;3.72;;
51248;SDS011;39642;47.556;18.728;2024-01-16T11:14:59;18.85;;;4.15;;
51248;SDS011;39642;47.556;18.728;2024-01-16T11:17:27;18.08;;;3.70;;
51248;SDS011;39642;47.556;18.728;2024-01-16T11:19:56;17.87;;;3.60;;
51248;SDS011;39642;47.556;18.728;2024-01-16T11:22:23;16.75;;;3.33;;
51248;SDS011;39642;47.556;18.728;2024-01-16T11:27:39;12.50;;;3.35;;
51248;SDS011;39642;47.556;18.728;2024-01-16T11:30:07;13.45;;;3.08;;
51248;SDS011;39642;47.556;18.728;2024-01-16T11:35:06;15.32;;;3.37;;
51248;SDS011;39642;47.556;18.728;2024-01-16T11:37:39;16.58;;;3.37;;
51248;SDS011;39642;47.556;18.728;2024-01-16T11:42:46;29.60;;;4.07;;
51248;SDS011;39642;47.556;18.728;2024-01-16T11:50:45;24.12;;;4.35;;
51248;SDS011;39642;47.556;18.728;2024-01-16T12:10:07;19.15;;;3.47;;
51248;SDS011;39642;47.556;18.728;2024-01-16T12:12:35;27.62;;;3.87;;
51248;SDS011;39642;47.556;18.728;2024-01-16T12:15:01;24.50;;;4.10;;
51248;SDS011;39642;47.556;18.728;2024-01-16T12:17:38;16.50;;;3.17;;
51248;SDS011;39642;47.556;18.728;2024-01-16T12:26:49;20.98;;;3.80;;
51248;SDS011;39642;47.556;18.728;2024-01-16T12:29:17;30.48;;;4.10;;
51248;SDS011;39642;47.556;18.728;2024-01-16T12:31:43;28.85;;;3.70;;
51248;SDS011;39642;47.556;18.728;2024-01-16T12:34:09;19.87;;;3.28;;
51248;SDS011;39642;47.556;18.728;2024-01-16T12:36:36;25.17;;;3.40;;
51248;SDS011;39642;47.556;18.728;2024-01-16T12:39:06;25.95;;;3.47;;
51248;SDS011;39642;47.556;18.728;2024-01-16T12:41:41;34.67;;;4.55;;
51248;SDS011;39642;47.556;18.728;2024-01-16T12:44:09;22.75;;;4.12;;
51248;SDS011;39642;47.556;18.728;2024-01-16T12:46:36;24.52;;;3.85;;
51248;SDS011;39642;47.556;18.728;2024-01-16T12:49:02;21.80;;;3.80;;
51248;SDS011;39642;47.556;18.728;2024-01-16T12:51:30;17.60;;;3.55;;
51248;SDS011;39642;47.556;18.728;2024-01-16T12:54:15;19.20;;;3.28;;
51248;SDS011;39642;47.556;18.728;2024-01-16T12:56:43;16.33;;;3.00;;
51248;SDS011;39642;47.556;18.728;2024-01-16T12:59:09;28.02;;;3.80;;
51248;SDS011;39642;47.556;18.728;2024-01-16T13:01:38;21.75;;;3.50;;
51248;SDS011;39642;47.556;18.728;2024-01-16T13:04:07;20.23;;;3.83;;
51248;SDS011;39642;47.556;18.728;2024-01-16T13:06:33;22.20;;;3.53;;
51248;SDS011;39642;47.556;18.728;2024-01-16T13:25:23;15.77;;;3.10;;
51248;SDS011;39642;47.556;18.728;2024-01-16T13:27:49;14.93;;;2.53;;
51248;SDS011;39642;47.556;18.728;2024-01-16T13:30:16;15.48;;;2.90;;
51248;SDS011;39642;47.556;18.728;2024-01-16T13:32:45;19.92;;;3.40;;
51248;SDS011;39642;47.556;18.728;2024-01-16T13:35:11;23.75;;;3.08;;
51248;SDS011;39642;47.556;18.728;2024-01-16T13:37:37;21.75;;;2.83;;
51248;SDS011;39642;47.556;18.728;2024-01-16T13:40:04;20.55;;;3.10;;
51248;SDS011;39642;47.556;18.728;2024-01-16T13:42:34;18.02;;;3.05;;
51248;SDS011;39642;47.556;18.728;2024-01-16T13:45:05;12.73;;;2.35;;
51248;SDS011;39642;47.556;18.728;2024-01-16T13:47:31;18.95;;;2.58;;
51248;SDS011;39642;47.556;18.728;2024-01-16T13:49:57;14.13;;;3.37;;
51248;SDS011;39642;47.556;18.728;2024-01-16T13:52:23;12.00;;;2.40;;
51248;SDS011;39642;47.556;18.728;2024-01-16T13:54:49;12.80;;;2.42;;
51248;SDS011;39642;47.556;18.728;2024-01-16T13:57:15;15.35;;;3.03;;
51248;SDS011;39642;47.556;18.728;2024-01-16T13:59:44;14.70;;;2.90;;
51248;SDS011;39642;47.556;18.728;2024-01-16T14:02:10;13.27;;;2.65;;
51248;SDS011;39642;47.556;18.728;2024-01-16T14:04:36;11.48;;;4.25;;
51248;SDS011;39642;47.556;18.728;2024-01-16T14:07:02;14.80;;;2.90;;
51248;SDS011;39642;47.556;18.728;2024-01-16T14:09:32;12.68;;;2.80;;
51248;SDS011;39642;47.556;18.728;2024-01-16T14:11:59;15.82;;;6.95;;
51248;SDS011;39642;47.556;18.728;2024-01-16T14:14:25;16.17;;;7.62;;
51248;SDS011;39642;47.556;18.728;2024-01-16T14:16:51;23.90;;;9.18;;
51248;SDS011;39642;47.556;18.728;2024-01-16T14:19:17;20.48;;;8.45;;
51248;SDS011;39642;47.556;18.728;2024-01-16T14:21:43;19.15;;;7.00;;
51248;SDS011;39642;47.556;18.728;2024-01-16T14:24:09;21.60;;;5.20;;
51248;SDS011;39642;47.556;18.728;2024-01-16T14:26:35;21.58;;;5.50;;
51248;SDS011;39642;47.556;18.728;2024-01-16T14:29:01;15.95;;;4.85;;
51248;SDS011;39642;47.556;18.728;2024-01-16T14:31:27;17.20;;;4.30;;
51248;SDS011;39642;47.556;18.728;2024-01-16T14:33:53;22.17;;;4.72;;
51248;SDS011;39642;47.556;18.728;2024-01-16T14:36:19;30.90;;;5.03;;
51248;SDS011;39642;47.556;18.728;2024-01-16T14:38:45;16.95;;;5.10;;
51248;SDS011;39642;47.556;18.728;2024-01-16T14:41:14;23.23;;;6.80;;
51248;SDS011;39642;47.556;18.728;2024-01-16T14:43:41;22.70;;;6.72;;
51248;SDS011;39642;47.556;18.728;2024-01-16T14:46:06;17.80;;;5.37;;
51248;SDS011;39642;47.556;18.728;2024-01-16T14:48:45;20.42;;;3.60;;
51248;SDS011;39642;47.556;18.728;2024-01-16T14:53:45;20.52;;;5.47;;
51248;SDS011;39642;47.556;18.728;2024-01-16T14:56:11;23.15;;;6.75;;
51248;SDS011;39642;47.556;18.728;2024-01-16T14:58:38;24.65;;;6.68;;
51248;SDS011;39642;47.556;18.728;2024-01-16T15:01:04;22.35;;;3.62;;
51248;SDS011;39642;47.556;18.728;2024-01-16T15:03:32;25.00;;;4.70;;
51248;SDS011;39642;47.556;18.728;2024-01-16T15:05:59;24.77;;;6.50;;
51248;SDS011;39642;47.556;18.728;2024-01-16T15:08:25;26.05;;;5.47;;
51248;SDS011;39642;47.556;18.728;2024-01-16T15:10:52;20.92;;;5.18;;
51248;SDS011;39642;47.556;18.728;2024-01-16T15:13:18;20.27;;;4.97;;
51248;SDS011;39642;47.556;18.728;2024-01-16T15:15:44;20.88;;;3.90;;
51248;SDS011;39642;47.556;18.728;2024-01-16T15:18:09;23.02;;;4.22;;
51248;SDS011;39642;47.556;18.728;2024-01-16T15:20:35;22.98;;;6.00;;
51248;SDS011;39642;47.556;18.728;2024-01-16T15:23:01;18.12;;;5.65;;